上海/浦東 の空港の天気 - METARとTAF

上海浦東国際空港 ( ZSPD / PVG ) - 中国 上海市
飛行場実況気象(Metar)
観測時間07/18 20:30 CST (07/18 12:30 UTC)
風向・風速南東 6m/s
視程10km以上
天気現象
少しの雲 雲底高度 400m
気温27℃
湿度84%
気圧1009hPa
METARZSPD 181230Z 14006MPS 9999 FEW013 27/24 Q1009 NOSIG
過去の天気等 Google飛行場航空写真 Wunderground天気予報

過去48時間のMETAR

飛行場予報(TAF)
発表時間: 7/18 17:15 CST (7/18 09:15 UTC)
予報対象時間: 18日20時 CST ~ 19日20時 CST
風向・風速南東 4m/s
視程6000m
全天の4割程度の雲 雲底高度 460m
TAF ZSPD 180915Z 1812/1912 13004MPS 6000 SCT015 TX34/1906Z TN26/1821Z